Terminal Aerodrome Forecast
Issued by NWS

Home | Current Version | Previous Version | Text Only | Print | Product List | Glossary On
Versions: 1 2 3 4 5 6 7 8 9 10 11 12 13 14 15 16 17 18 19 20 21 22 23 24 25 26 27
000
FTUS41 KGYX 251120
TAFLEB
TAF
KLEB 251120Z 2512/2612 00000KT P6SM SCT120 OVC200
     FM251300 06007KT P6SM SCT050 OVC100
     FM251600 07013G20KT 6SM -SHRA BR BKN025 OVC040
     FM252100 05008KT 3SM -RA BR OVC012
     FM260000 03005KT 6SM -SHRA BR OVC007 WS020/10045KT=

USA.gov is the U.S. government's official web portal to all federal, state and local government web resources and services.